Time;durP1;ratioP1;P1;durP2;ratioP2;P2;SDS_P1;SDS_P2;PMS_P1;PMS_P2;Temp;Humidity;BMP_temperature;BMP_pressure;BME280_temperature;BME280_humidity;BME280_pressure;Samples;Min_cycle;Max_cycle;Signal;HPM_P1;HPM_P2
2023/04/19 00:01:57;;;;;;;0.40;0.40;;;;;;;7.49;46.53;102642.56;5106981;28;20252;-59
2023/04/19 00:04:24;;;;;;;0.40;0.40;;;;;;;7.43;46.48;102633.72;5106939;28;20024;-58
2023/04/19 00:06:50;;;;;;;0.40;0.40;;;;;;;7.38;46.72;102635.22;5107011;28;20024;-60
2023/04/19 00:09:16;;;;;;;0.50;0.50;;;;;;;7.36;46.70;102638.59;5106541;28;20020;-58
2023/04/19 00:11:41;;;;;;;0.40;0.40;;;;;;;7.32;46.89;102642.72;5088560;28;20079;-58
2023/04/19 00:14:07;;;;;;;0.40;0.40;;;;;;;7.28;46.83;102641.75;5106712;28;20024;-58
2023/04/19 00:16:32;;;;;;;0.40;0.40;;;;;;;7.33;47.00;102641.94;5106794;28;20024;-58
2023/04/19 00:18:57;;;;;;;0.40;0.40;;;;;;;7.26;46.78;102637.31;5106820;28;20028;-58
2023/04/19 00:21:23;;;;;;;0.50;0.50;;;;;;;7.26;46.85;102634.72;5106746;28;20020;-59
2023/04/19 00:23:48;;;;;;;0.40;0.40;;;;;;;7.24;46.80;102638.94;5105815;28;20105;-58
2023/04/19 00:26:14;;;;;;;0.50;0.50;;;;;;;7.25;46.98;102632.97;5105645;28;20020;-59
2023/04/19 00:28:40;;;;;;;0.40;0.40;;;;;;;7.19;46.81;102636.16;5106182;28;20519;-57
2023/04/19 00:31:05;;;;;;;0.40;0.40;;;;;;;7.12;46.62;102635.06;5106851;28;20041;-57
2023/04/19 00:33:32;;;;;;;0.40;0.40;;;;;;;7.07;46.72;102631.38;5106444;28;20048;-58
2023/04/19 00:35:57;;;;;;;0.40;0.40;;;;;;;7.02;46.61;102632.88;5106513;28;20050;-59
2023/04/19 00:38:23;;;;;;;0.50;0.50;;;;;;;6.93;46.52;102630.81;5106325;28;20023;-57
2023/04/19 00:40:48;;;;;;;0.50;0.50;;;;;;;6.89;46.59;102632.38;5106361;28;20016;-57
2023/04/19 00:43:20;;;;;;;0.40;0.40;;;;;;;6.86;46.71;102637.41;5106837;28;20100;-58
2023/04/19 00:45:47;;;;;;;0.40;0.40;;;;;;;6.82;46.74;102631.22;5106520;28;20254;-58
2023/04/19 00:48:13;;;;;;;0.50;0.50;;;;;;;6.79;47.04;102631.09;5106355;28;20024;-59
2023/04/19 00:50:40;;;;;;;0.50;0.50;;;;;;;6.73;47.40;102633.41;5106468;28;20035;-59
2023/04/19 00:53:06;;;;;;;0.50;0.50;;;;;;;6.67;47.53;102631.44;5106577;28;20120;-58
2023/04/19 00:55:32;;;;;;;0.50;0.50;;;;;;;6.64;47.47;102635.56;5105879;28;20472;-59
2023/04/19 00:57:58;;;;;;;0.50;0.50;;;;;;;6.61;48.01;102630.28;5104953;28;20093;-59
2023/04/19 01:00:24;;;;;;;0.43;0.43;;;;;;;6.55;48.10;102633.50;5106213;28;20024;-58
2023/04/19 01:02:49;;;;;;;0.40;0.40;;;;;;;6.48;48.07;102639.19;5106322;28;20024;-57
2023/04/19 01:05:15;;;;;;;0.40;0.40;;;;;;;6.46;48.39;102636.53;5106538;28;20022;-59
2023/04/19 01:07:41;;;;;;;0.40;0.40;;;;;;;6.38;48.40;102638.78;5103417;28;20478;-60
2023/04/19 01:10:07;;;;;;;0.40;0.40;;;;;;;6.39;48.93;102640.53;5105784;28;20020;-58
2023/04/19 01:12:33;;;;;;;0.40;0.40;;;;;;;6.29;48.86;102633.19;5106228;28;20051;-61
2023/04/19 01:14:58;;;;;;;0.40;0.40;;;;;;;6.23;48.55;102641.53;5106290;28;20024;-59
2023/04/19 01:17:25;;;;;;;0.40;0.40;;;;;;;6.17;48.96;102639.56;5106033;28;20487;-60
2023/04/19 01:19:58;;;;;;;0.40;0.40;;;;;;;6.11;48.86;102641.84;5105955;28;20363;-60
2023/04/19 01:22:24;;;;;;;0.40;0.40;;;;;;;6.07;48.62;102648.56;5106084;28;20107;-57
2023/04/19 01:24:50;;;;;;;0.40;0.40;;;;;;;6.02;48.88;102639.69;5105773;28;20551;-57
2023/04/19 01:27:16;;;;;;;0.50;0.50;;;;;;;5.97;48.91;102638.59;5105807;28;20031;-56
2023/04/19 01:29:42;;;;;;;0.50;0.50;;;;;;;5.95;48.91;102641.09;5105588;28;20020;-58
2023/04/19 01:32:07;;;;;;;0.40;0.40;;;;;;;5.89;49.01;102643.41;5105377;28;20055;-59
2023/04/19 01:34:32;;;;;;;0.43;0.43;;;;;;;5.85;48.88;102646.63;5105370;28;20028;-58
2023/04/19 01:36:58;;;;;;;0.45;0.45;;;;;;;5.83;48.70;102650.84;5105460;28;20024;-58
2023/04/19 01:39:24;;;;;;;0.43;0.43;;;;;;;5.80;48.89;102651.56;5105288;28;20024;-59
2023/04/19 01:41:50;;;;;;;0.55;0.55;;;;;;;5.74;48.77;102653.84;5105408;28;20027;-58
2023/04/19 01:44:15;;;;;;;0.50;0.50;;;;;;;5.70;48.80;102650.22;5105361;28;20024;-58
2023/04/19 01:46:41;;;;;;;0.43;0.43;;;;;;;5.70;48.69;102649.38;5105196;28;20016;-56
2023/04/19 01:49:07;;;;;;;0.50;0.50;;;;;;;5.68;48.64;102649.31;5105371;28;20052;-58
2023/04/19 01:51:33;;;;;;;0.40;0.40;;;;;;;5.66;48.64;102644.84;5105456;28;20028;-57
2023/04/19 01:53:58;;;;;;;0.50;0.50;;;;;;;5.63;48.62;102652.44;5105005;28;20979;-60
2023/04/19 01:56:24;;;;;;;0.40;0.40;;;;;;;5.59;48.71;102648.84;5105385;28;20079;-55
2023/04/19 01:58:50;;;;;;;0.47;0.47;;;;;;;5.56;48.90;102653.84;5105201;28;20038;-58
2023/04/19 02:01:15;;;;;;;0.47;0.47;;;;;;;5.54;48.97;102661.50;5105168;28;20392;-58
2023/04/19 02:03:41;;;;;;;0.50;0.50;;;;;;;5.55;48.88;102649.50;5104957;28;20095;-58
2023/04/19 02:06:11;;;;;;;0.40;0.40;;;;;;;5.52;48.97;102644.19;5086843;28;20357;-57
2023/04/19 02:08:37;;;;;;;0.50;0.50;;;;;;;5.50;48.78;102640.66;5105056;28;20028;-56
2023/04/19 02:11:10;;;;;;;0.50;0.50;;;;;;;5.49;49.04;102652.66;5104969;28;20031;-58
2023/04/19 02:13:36;;;;;;;0.40;0.40;;;;;;;5.50;48.87;102638.06;5105050;28;20046;-54
2023/04/19 02:16:02;;;;;;;0.50;0.50;;;;;;;5.49;48.80;102644.06;5104955;28;20044;-59
2023/04/19 02:18:30;;;;;;;0.43;0.43;;;;;;;5.52;48.71;102636.47;5086382;28;20016;-57
2023/04/19 02:20:57;;;;;;;0.50;0.50;;;;;;;5.49;48.62;102634.63;5085948;28;20024;-58
2023/04/19 02:23:23;;;;;;;0.40;0.40;;;;;;;5.46;49.14;102637.06;5104317;28;20051;-58
2023/04/19 02:25:48;;;;;;;0.43;0.43;;;;;;;5.49;49.01;102634.63;5104634;28;20055;-55
2023/04/19 02:28:14;;;;;;;0.47;0.47;;;;;;;5.45;48.77;102632.69;5104504;28;20024;-56
2023/04/19 02:30:39;;;;;;;0.50;0.50;;;;;;;5.45;48.78;102631.03;5104668;28;20030;-57
2023/04/19 02:33:05;;;;;;;0.50;0.50;;;;;;;5.42;49.04;102636.03;5104464;28;20078;-56
2023/04/19 02:35:30;;;;;;;0.45;0.45;;;;;;;5.41;48.96;102631.69;5104482;28;20020;-59
2023/04/19 02:37:56;;;;;;;0.40;0.40;;;;;;;5.40;48.85;102632.47;5103681;28;20030;-61
2023/04/19 02:40:22;;;;;;;0.40;0.40;;;;;;;5.39;48.93;102624.69;5104257;28;20027;-58
2023/04/19 02:42:48;;;;;;;0.50;0.50;;;;;;;5.37;49.20;102624.59;5104206;28;20024;-60
2023/04/19 02:45:13;;;;;;;0.43;0.43;;;;;;;5.38;49.60;102622.91;5104313;28;20376;-59
2023/04/19 02:47:39;;;;;;;0.40;0.40;;;;;;;5.38;49.56;102633.22;5104306;28;20023;-58
2023/04/19 02:50:05;;;;;;;0.50;0.50;;;;;;;5.32;49.32;102613.19;5104103;28;20092;-59
2023/04/19 02:52:30;;;;;;;0.50;0.50;;;;;;;5.33;49.53;102614.97;5104070;28;20028;-58
2023/04/19 02:54:56;;;;;;;0.50;0.50;;;;;;;5.32;49.53;102618.34;5104037;28;20035;-55
2023/04/19 02:57:21;;;;;;;0.40;0.40;;;;;;;5.31;49.41;102612.31;5104175;28;20027;-59
2023/04/19 02:59:47;;;;;;;0.50;0.50;;;;;;;5.28;49.56;102611.28;5102705;28;20023;-55
2023/04/19 03:02:12;;;;;;;0.47;0.47;;;;;;;5.27;49.33;102617.25;5104020;28;20097;-59
2023/04/19 03:04:37;;;;;;;0.45;0.45;;;;;;;5.21;49.25;102616.13;5103990;28;20027;-58
2023/04/19 03:07:03;;;;;;;0.40;0.40;;;;;;;5.17;49.39;102614.22;5104239;28;20072;-60
2023/04/19 03:09:28;;;;;;;0.40;0.40;;;;;;;5.13;49.33;102616.56;5103936;28;20049;-60
2023/04/19 03:11:54;;;;;;;1.40;1.30;;;;;;;5.14;49.79;102614.06;5104009;28;20024;-57
2023/04/19 03:14:19;;;;;;;0.57;0.57;;;;;;;5.07;49.47;102607.72;5104109;28;20019;-60
2023/04/19 03:16:45;;;;;;;0.50;0.50;;;;;;;5.03;49.67;102608.34;5103810;28;20024;-59
2023/04/19 03:19:10;;;;;;;0.50;0.50;;;;;;;5.01;49.88;102598.78;5103950;28;20031;-58
2023/04/19 03:21:35;;;;;;;0.50;0.50;;;;;;;4.93;49.85;102593.25;5104003;28;20020;-58
2023/04/19 03:24:01;;;;;;;0.50;0.50;;;;;;;4.87;49.91;102592.97;5103631;28;20024;-56
2023/04/19 03:26:26;;;;;;;0.50;0.50;;;;;;;4.83;49.92;102597.06;5085662;28;20097;-58
2023/04/19 03:28:52;;;;;;;0.50;0.50;;;;;;;4.78;50.07;102599.41;5103761;28;20050;-59
2023/04/19 03:31:17;;;;;;;0.50;0.50;;;;;;;4.77;50.04;102596.75;5104281;28;20020;-58
2023/04/19 03:33:43;;;;;;;0.50;0.50;;;;;;;4.75;50.39;102590.63;5107799;28;20056;-58
2023/04/19 03:36:08;;;;;;;0.50;0.50;;;;;;;4.74;50.42;102591.44;5107978;28;20020;-58
2023/04/19 03:38:34;;;;;;;0.50;0.50;;;;;;;4.75;50.59;102593.19;5107906;28;20089;-58
2023/04/19 03:40:59;;;;;;;0.50;0.50;;;;;;;4.75;50.51;102601.81;5107744;28;20016;-59
2023/04/19 03:43:24;;;;;;;0.50;0.50;;;;;;;4.74;50.65;102599.16;5107859;28;20024;-58
2023/04/19 03:45:50;;;;;;;0.40;0.40;;;;;;;4.71;50.56;102600.75;5107756;28;20031;-58
2023/04/19 03:48:16;;;;;;;0.40;0.40;;;;;;;4.69;50.61;102602.41;5107460;28;20024;-58
2023/04/19 03:50:41;;;;;;;0.50;0.50;;;;;;;4.67;50.78;102606.56;5107957;28;20043;-59
2023/04/19 03:53:08;;;;;;;0.50;0.50;;;;;;;4.61;50.94;102603.69;5089151;28;20020;-57
2023/04/19 03:55:33;;;;;;;0.50;0.50;;;;;;;4.56;50.97;102600.88;5107489;28;20024;-58
2023/04/19 03:57:59;;;;;;;0.50;0.50;;;;;;;4.53;50.98;102593.00;5107613;28;20031;-58
2023/04/19 04:00:25;;;;;;;0.47;0.47;;;;;;;4.50;51.15;102597.09;5107387;28;20031;-59
2023/04/19 04:02:50;;;;;;;0.50;0.50;;;;;;;4.44;51.27;102595.09;5106069;28;20035;-58
2023/04/19 04:05:16;;;;;;;0.50;0.50;;;;;;;4.42;51.27;102587.28;5107436;28;20054;-58
2023/04/19 04:07:41;;;;;;;0.50;0.50;;;;;;;4.38;51.48;102587.06;5107166;28;20089;-60
2023/04/19 04:10:07;;;;;;;0.50;0.50;;;;;;;4.38;51.72;102592.19;5089054;28;20107;-58
2023/04/19 04:12:33;;;;;;;0.50;0.50;;;;;;;4.29;51.99;102590.00;5107140;28;20020;-57
2023/04/19 04:14:58;;;;;;;0.55;0.55;;;;;;;4.33;52.22;102599.66;5107374;28;20080;-61
2023/04/19 04:17:23;;;;;;;0.50;0.50;;;;;;;4.33;52.31;102599.66;5107220;28;20020;-58
2023/04/19 04:19:49;;;;;;;0.50;0.50;;;;;;;4.28;52.54;102603.69;5107153;28;20236;-58
2023/04/19 04:22:15;;;;;;;0.50;0.50;;;;;;;4.34;52.61;102591.16;5107203;28;20024;-56
2023/04/19 04:24:41;;;;;;;0.50;0.50;;;;;;;4.51;52.85;102609.13;5106807;28;20031;-57
2023/04/19 04:27:10;;;;;;;0.40;0.40;;;;;;;4.80;53.01;102594.31;5106941;28;20020;-56
2023/04/19 04:29:36;;;;;;;0.50;0.50;;;;;;;5.30;53.23;102596.78;5107016;28;20147;-57
2023/04/19 04:32:04;;;;;;;0.50;0.50;;;;;;;5.81;53.11;102598.31;5106710;28;20047;-56
2023/04/19 04:34:31;;;;;;;0.40;0.40;;;;;;;6.27;52.53;102594.44;5106594;28;20031;-58
2023/04/19 04:36:57;;;;;;;0.47;0.47;;;;;;;6.67;51.62;102584.97;5106524;28;20057;-60
2023/04/19 04:39:22;;;;;;;0.40;0.40;;;;;;;7.01;51.42;102584.63;5106641;28;20020;-59
2023/04/19 04:41:48;;;;;;;0.50;0.50;;;;;;;7.42;50.94;102590.63;5105610;28;20020;-57
2023/04/19 04:44:15;;;;;;;0.77;0.77;;;;;;;7.79;50.38;102591.19;5106488;28;20034;-59
2023/04/19 04:46:40;;;;;;;0.50;0.50;;;;;;;8.14;50.51;102583.00;5106764;28;20016;-60
2023/04/19 04:49:06;;;;;;;0.82;0.82;;;;;;;8.63;50.17;102579.53;5106537;28;20447;-60
2023/04/19 04:51:31;;;;;;;0.47;0.47;;;;;;;9.22;49.67;102585.81;5106811;28;20027;-59
2023/04/19 04:53:57;;;;;;;0.40;0.40;;;;;;;9.59;49.38;102589.56;5106524;28;20450;-58
2023/04/19 04:56:22;;;;;;;0.40;0.40;;;;;;;9.80;47.36;102596.25;5106549;28;20438;-59
2023/04/19 04:58:48;;;;;;;0.40;0.40;;;;;;;9.78;47.07;102592.69;5106472;28;20023;-59
2023/04/19 05:01:13;;;;;;;0.30;0.30;;;;;;;9.71;46.67;102598.56;5106537;28;20020;-60
2023/04/19 05:03:38;;;;;;;0.40;0.40;;;;;;;9.67;46.03;102594.97;5106425;28;20061;-60
2023/04/19 05:06:04;;;;;;;0.40;0.40;;;;;;;9.66;45.62;102591.50;5106403;28;20016;-61
2023/04/19 05:08:30;;;;;;;0.40;0.40;;;;;;;9.57;45.21;102601.59;5106273;28;20031;-59
2023/04/19 05:10:55;;;;;;;0.40;0.40;;;;;;;9.40;45.17;102582.91;5106467;28;20040;-58
2023/04/19 05:13:20;;;;;;;0.40;0.40;;;;;;;9.46;44.78;102596.06;5106345;28;20371;-59
2023/04/19 05:15:46;;;;;;;2.28;1.88;;;;;;;9.53;45.23;102597.16;5106191;28;20077;-60
2023/04/19 05:18:11;;;;;;;0.40;0.40;;;;;;;9.84;45.02;102598.06;5106219;28;20038;-58
2023/04/19 05:20:37;;;;;;;0.30;0.30;;;;;;;10.09;44.16;102591.03;5106020;28;20407;-57
2023/04/19 05:23:03;;;;;;;0.40;0.40;;;;;;;10.29;43.85;102595.91;5106361;28;20039;-62
2023/04/19 05:25:28;;;;;;;0.40;0.40;;;;;;;10.40;44.18;102591.88;5105921;28;20023;-57
2023/04/19 05:27:54;;;;;;;0.40;0.40;;;;;;;10.59;42.93;102597.59;5106194;28;20032;-60
2023/04/19 05:30:20;;;;;;;0.30;0.30;;;;;;;10.47;42.68;102586.88;5105904;28;20426;-57
2023/04/19 05:32:45;;;;;;;0.40;0.40;;;;;;;10.90;42.51;102593.22;5105707;28;20044;-60
2023/04/19 05:35:11;;;;;;;0.40;0.40;;;;;;;11.01;41.69;102592.59;5105638;28;20085;-62
2023/04/19 05:37:37;;;;;;;0.40;0.40;;;;;;;11.02;41.18;102587.44;5105764;28;20056;-61
2023/04/19 05:40:08;;;;;;;0.38;0.38;;;;;;;10.99;41.13;102592.56;5105292;28;20472;-60
2023/04/19 05:42:34;;;;;;;0.50;0.50;;;;;;;10.91;40.63;102586.28;5087674;28;20109;-62
2023/04/19 05:45:00;;;;;;;0.40;0.40;;;;;;;10.63;40.87;102589.06;5104524;28;20031;-60
2023/04/19 05:47:25;;;;;;;0.40;0.40;;;;;;;10.53;41.00;102585.34;5105061;28;20106;-61
2023/04/19 05:49:50;;;;;;;0.40;0.40;;;;;;;10.56;41.47;102573.28;5105258;28;20016;-60
2023/04/19 05:52:16;;;;;;;0.40;0.40;;;;;;;10.82;41.29;102571.38;5105531;28;20024;-61
2023/04/19 05:54:42;;;;;;;0.40;0.40;;;;;;;11.08;40.00;102567.66;5104573;28;20028;-61
2023/04/19 05:57:08;;;;;;;0.40;0.40;;;;;;;10.87;39.56;102580.16;5105396;28;20020;-61
2023/04/19 05:59:33;;;;;;;0.40;0.40;;;;;;;10.80;40.18;102570.44;5105192;28;20111;-61
2023/04/19 06:01:59;;;;;;;0.40;0.40;;;;;;;11.07;40.58;102573.69;5087216;28;20141;-60
2023/04/19 06:04:25;;;;;;;0.40;0.40;;;;;;;11.28;40.43;102566.41;5105311;28;20023;-60
2023/04/19 06:06:51;;;;;;;0.30;0.30;;;;;;;11.56;39.58;102563.56;5105448;28;20464;-59
2023/04/19 06:09:17;;;;;;;0.40;0.40;;;;;;;11.63;38.82;102559.34;5103583;28;20069;-61
2023/04/19 06:11:43;;;;;;;0.30;0.30;;;;;;;11.68;38.32;102560.34;5105127;28;20031;-59
2023/04/19 06:14:10;;;;;;;0.30;0.30;;;;;;;11.52;38.33;102565.22;5105105;28;20587;-60
2023/04/19 06:16:35;;;;;;;0.40;0.40;;;;;;;11.69;38.70;102566.44;5104904;28;20028;-60
2023/04/19 06:19:00;;;;;;;0.40;0.40;;;;;;;11.68;38.35;102569.91;5104953;28;20034;-61
2023/04/19 06:21:29;;;;;;;0.40;0.40;;;;;;;11.67;37.81;102557.72;5105161;28;20028;-60
2023/04/19 06:23:55;;;;;;;0.40;0.40;;;;;;;11.52;38.04;102561.72;5104834;28;20062;-60
2023/04/19 06:26:20;;;;;;;0.30;0.30;;;;;;;11.52;38.07;102569.53;5104853;28;20081;-59
2023/04/19 06:28:46;;;;;;;0.30;0.30;;;;;;;11.41;37.63;102569.28;5104676;28;20020;-60
2023/04/19 06:31:11;;;;;;;0.40;0.40;;;;;;;11.33;38.31;102571.72;5086549;28;20016;-61
2023/04/19 06:33:36;;;;;;;0.40;0.40;;;;;;;11.44;38.15;102571.09;5104524;28;20222;-60
2023/04/19 06:36:02;;;;;;;0.30;0.30;;;;;;;11.42;37.84;102577.97;5104785;28;20094;-59
2023/04/19 06:38:28;;;;;;;0.40;0.40;;;;;;;11.17;37.53;102573.06;5104696;28;20020;-60
2023/04/19 06:40:56;;;;;;;0.50;0.50;;;;;;;11.21;38.53;102569.72;5104560;28;20071;-60
2023/04/19 06:43:22;;;;;;;0.40;0.40;;;;;;;11.41;38.56;102564.09;5103931;28;20016;-59
2023/04/19 06:45:47;;;;;;;0.40;0.40;;;;;;;11.68;38.33;102569.91;5103479;28;20017;-60
2023/04/19 06:48:12;;;;;;;0.40;0.40;;;;;;;11.96;38.00;102552.25;5104511;28;20027;-60
2023/04/19 06:50:38;;;;;;;0.40;0.40;;;;;;;12.18;36.68;102550.97;5104334;28;20035;-60
2023/04/19 06:53:03;;;;;;;0.40;0.40;;;;;;;12.27;37.46;102556.38;5103588;28;20020;-60
2023/04/19 06:55:29;;;;;;;0.30;0.30;;;;;;;12.63;37.19;102563.97;5104151;28;20032;-60
2023/04/19 06:57:54;;;;;;;0.50;0.50;;;;;;;12.78;35.70;102573.75;5103938;28;20042;-60
2023/04/19 07:00:21;;;;;;;0.40;0.40;;;;;;;12.45;35.72;102554.97;5103248;28;20084;-60
2023/04/19 07:02:48;;;;;;;0.30;0.30;;;;;;;12.30;36.53;102558.13;5104378;28;20042;-60
2023/04/19 07:05:14;;;;;;;0.30;0.30;;;;;;;12.52;36.17;102554.19;5104397;28;20016;-60
2023/04/19 07:07:40;;;;;;;0.50;0.50;;;;;;;12.49;36.14;102548.09;5103610;28;20043;-60
2023/04/19 07:10:07;;;;;;;0.40;0.40;;;;;;;12.46;36.44;102548.03;5104304;28;20134;-60
2023/04/19 07:12:32;;;;;;;0.40;0.40;;;;;;;12.45;36.25;102554.06;5102582;28;20031;-59
2023/04/19 07:14:58;;;;;;;0.30;0.30;;;;;;;12.52;36.60;102545.53;5104249;28;20031;-60
2023/04/19 07:17:23;;;;;;;0.35;0.35;;;;;;;12.71;36.43;102546.72;5104061;28;20430;-61
2023/04/19 07:19:49;;;;;;;0.40;0.40;;;;;;;12.89;36.64;102542.69;5103982;28;20043;-59
2023/04/19 07:22:15;;;;;;;0.30;0.30;;;;;;;13.35;35.81;102546.84;5103986;28;20028;-60
2023/04/19 07:24:40;;;;;;;0.40;0.40;;;;;;;13.38;34.89;102555.59;5104109;28;20045;-60
2023/04/19 07:27:07;;;;;;;0.35;0.35;;;;;;;13.16;34.32;102549.19;5104309;28;20024;-59
2023/04/19 07:29:35;;;;;;;0.30;0.30;;;;;;;12.80;35.60;102542.50;5104067;28;20036;-59
2023/04/19 07:32:01;;;;;;;0.40;0.40;;;;;;;13.18;35.70;102567.47;5103851;28;20115;-61
2023/04/19 07:34:26;;;;;;;0.30;0.30;;;;;;;13.26;34.98;102550.16;5104126;28;20035;-60
2023/04/19 07:36:52;;;;;;;0.30;0.30;;;;;;;13.12;34.81;102548.25;5085611;28;20077;-62
2023/04/19 07:39:17;;;;;;;0.30;0.30;;;;;;;13.09;34.89;102558.63;5103539;28;20463;-60
2023/04/19 07:41:44;;;;;;;0.40;0.40;;;;;;;12.96;35.46;102544.53;5103867;28;20035;-60
2023/04/19 07:44:10;;;;;;;0.40;0.40;;;;;;;13.08;35.43;102541.22;5104104;28;20031;-61
2023/04/19 07:46:36;;;;;;;0.30;0.30;;;;;;;13.13;35.30;102551.75;5103748;28;20016;-59
2023/04/19 07:49:01;;;;;;;0.35;0.35;;;;;;;13.15;34.79;102534.38;5103768;28;20035;-60
2023/04/19 07:51:27;;;;;;;0.40;0.40;;;;;;;13.21;34.76;102538.81;5103760;28;20083;-59
2023/04/19 07:53:53;;;;;;;0.30;0.30;;;;;;;13.27;34.84;102531.09;5103890;28;20026;-60
2023/04/19 07:56:19;;;;;;;0.30;0.30;;;;;;;13.33;34.98;102544.22;5103552;28;20024;-59
2023/04/19 07:58:44;;;;;;;0.40;0.40;;;;;;;13.54;35.12;102516.69;5103325;28;20020;-58
2023/04/19 08:01:10;;;;;;;0.30;0.30;;;;;;;13.96;34.40;102537.22;5103822;28;20020;-59
2023/04/19 08:03:36;;;;;;;0.30;0.30;;;;;;;13.91;33.80;102537.16;5103710;28;20534;-60
2023/04/19 08:06:07;;;;;;;0.30;0.30;;;;;;;13.82;34.02;102529.19;5103788;28;20020;-61
2023/04/19 08:08:32;;;;;;;0.30;0.30;;;;;;;14.02;34.12;102529.44;5103854;28;20379;-60
2023/04/19 08:10:58;;;;;;;0.30;0.30;;;;;;;14.25;33.54;102539.25;5103524;28;20024;-59
2023/04/19 08:13:23;;;;;;;0.40;0.40;;;;;;;14.21;33.12;102533.16;5103754;28;20024;-60
2023/04/19 08:15:49;;;;;;;0.30;0.30;;;;;;;14.11;33.31;102533.88;5103560;28;20044;-60
2023/04/19 08:18:14;;;;;;;0.40;0.40;;;;;;;14.13;32.96;102525.22;5105280;28;20053;-60
2023/04/19 08:20:43;;;;;;;0.30;0.30;;;;;;;14.13;32.86;102538.28;5107107;28;20027;-59
2023/04/19 08:23:08;;;;;;;0.32;0.32;;;;;;;14.03;32.82;102533.81;5107245;28;20095;-59
2023/04/19 08:25:34;;;;;;;0.30;0.30;;;;;;;14.11;32.92;102524.31;5107024;28;20063;-60
2023/04/19 08:28:00;;;;;;;0.30;0.30;;;;;;;14.26;32.79;102527.97;5107200;28;20035;-60
2023/04/19 08:30:25;;;;;;;0.30;0.30;;;;;;;14.55;32.06;102536.94;5088846;28;20110;-60
2023/04/19 08:32:51;;;;;;;0.30;0.30;;;;;;;14.56;31.99;102523.00;5106961;28;20063;-61
2023/04/19 08:35:16;;;;;;;0.32;0.32;;;;;;;14.74;31.72;102523.16;5106830;28;20028;-61
2023/04/19 08:37:42;;;;;;;0.30;0.30;;;;;;;14.67;31.82;102523.09;5106920;28;20028;-59
2023/04/19 08:40:09;;;;;;;0.30;0.30;;;;;;;14.79;31.46;102520.59;5106828;28;20399;-60
2023/04/19 08:42:34;;;;;;;0.35;0.35;;;;;;;14.91;31.72;102529.41;5107156;28;20079;-60
2023/04/19 08:45:05;;;;;;;0.30;0.30;;;;;;;14.84;31.11;102520.66;5106780;28;20056;-60
2023/04/19 08:47:34;;;;;;;0.30;0.30;;;;;;;15.10;30.89;102522.56;5106789;28;20104;-60
2023/04/19 08:50:02;;;;;;;0.30;0.30;;;;;;;15.33;31.19;102514.88;5106768;28;20023;-59
2023/04/19 08:52:29;;;;;;;0.30;0.30;;;;;;;15.73;30.54;102503.69;5106748;28;20020;-60
2023/04/19 08:54:55;;;;;;;0.30;0.30;;;;;;;15.76;29.83;102509.81;5106742;28;20042;-62
2023/04/19 08:57:20;;;;;;;0.30;0.30;;;;;;;15.66;29.95;102498.44;5106700;28;20024;-60
2023/04/19 08:59:49;;;;;;;0.30;0.30;;;;;;;15.92;30.12;102510.75;5106480;28;20028;-63
2023/04/19 09:02:15;;;;;;;0.30;0.30;;;;;;;16.13;29.64;102494.25;5106786;28;20087;-59
2023/04/19 09:04:40;;;;;;;0.30;0.30;;;;;;;16.17;29.80;102492.47;5106289;28;20020;-60
2023/04/19 09:07:07;;;;;;;0.30;0.30;;;;;;;16.46;28.82;102516.13;5106655;28;20016;-62
2023/04/19 09:09:33;;;;;;;0.30;0.30;;;;;;;16.18;28.79;102481.16;5106370;28;20480;-59
2023/04/19 09:11:58;;;;;;;0.30;0.30;;;;;;;16.06;29.08;102482.00;5106275;28;20093;-60
2023/04/19 09:14:25;;;;;;;0.30;0.30;;;;;;;15.82;28.79;102489.78;5106266;28;20028;-59
2023/04/19 09:16:51;;;;;;;0.30;0.30;;;;;;;15.81;28.76;102485.41;5106207;28;20123;-60
2023/04/19 09:19:17;;;;;;;0.25;0.25;;;;;;;15.82;29.22;102487.16;5106235;28;20567;-60
2023/04/19 09:21:42;;;;;;;0.30;0.30;;;;;;;15.82;28.86;102484.53;5087754;28;20027;-60
2023/04/19 09:24:09;;;;;;;0.30;0.30;;;;;;;15.89;29.10;102464.47;5106194;28;20024;-61
2023/04/19 09:26:35;;;;;;;0.50;0.50;;;;;;;16.12;28.49;102482.00;5105887;28;20333;-61
2023/04/19 09:29:03;;;;;;;0.30;0.30;;;;;;;16.19;28.31;102467.16;5105099;28;20466;-59
2023/04/19 09:31:30;;;;;;;0.60;0.60;;;;;;;16.12;28.23;102471.50;5106042;28;20056;-60
2023/04/19 09:33:55;;;;;;;0.30;0.30;;;;;;;16.09;28.80;102471.50;5105842;28;20051;-60
2023/04/19 09:36:31;;;;;;;0.40;0.40;;;;;;;16.57;27.81;102468.03;5106056;28;20016;-60
2023/04/19 09:38:58;;;;;;;0.30;0.30;;;;;;;16.80;27.26;102472.41;5105807;28;20451;-59
2023/04/19 09:41:24;;;;;;;0.30;0.30;;;;;;;16.81;26.92;102466.25;5105742;28;20034;-61
2023/04/19 09:43:51;;;;;;;0.30;0.30;;;;;;;16.64;27.29;102463.66;5105647;28;20027;-62
2023/04/19 09:46:33;;;;;;;0.30;0.30;;;;;;;16.50;27.06;102461.94;5105709;28;20028;-60
2023/04/19 09:49:25;;;;;;;0.38;0.38;;;;;;;16.40;27.05;102444.47;5105627;28;20411;-61
2023/04/19 09:51:53;;;;;;;0.40;0.40;;;;;;;16.55;26.78;102448.84;5105555;28;20472;-60
2023/04/19 09:54:21;;;;;;;0.30;0.30;;;;;;;16.70;26.94;102453.19;5105343;28;20036;-60
2023/04/19 09:56:47;;;;;;;0.30;0.30;;;;;;;16.88;26.49;102441.78;5105522;28;20086;-60
2023/04/19 09:59:13;;;;;;;0.25;0.25;;;;;;;17.21;26.38;102434.72;5105286;28;20081;-60
2023/04/19 10:01:43;;;;;;;0.20;0.20;;;;;;;17.37;26.47;102441.63;5105308;28;20024;-59
2023/04/19 10:04:20;;;;;;;0.30;0.30;;;;;;;17.57;25.58;102441.56;5105401;28;20088;-59
2023/04/19 10:06:47;;;;;;;0.30;0.30;;;;;;;17.09;25.81;102421.66;5105240;28;20032;-60
2023/04/19 10:09:13;;;;;;;0.30;0.30;;;;;;;17.09;26.49;102430.38;5105094;28;20020;-60
2023/04/19 10:11:38;;;;;;;0.20;0.20;;;;;;;17.35;26.74;102415.41;5105121;28;20028;-59
2023/04/19 10:14:07;;;;;;;0.30;0.30;;;;;;;18.02;26.06;102415.00;5105197;28;20023;-59
2023/04/19 10:16:33;;;;;;;0.20;0.20;;;;;;;17.75;25.04;102413.44;5104984;28;20024;-59
2023/04/19 10:19:01;;;;;;;0.20;0.20;;;;;;;17.73;24.88;102420.47;5104929;28;20028;-61
2023/04/19 10:21:27;;;;;;;0.30;0.30;;;;;;;17.24;25.24;102433.81;5104854;28;20034;-59
2023/04/19 10:23:55;;;;;;;0.30;0.30;;;;;;;17.10;25.20;102391.91;5105073;28;20031;-60
2023/04/19 10:26:21;;;;;;;0.30;0.30;;;;;;;17.11;25.83;102398.88;5104911;28;20447;-60
2023/04/19 10:28:47;;;;;;;0.20;0.20;;;;;;;17.12;25.30;102412.88;5104891;28;20491;-59
2023/04/19 10:31:13;;;;;;;0.30;0.30;;;;;;;16.87;25.04;102412.94;5104741;28;20098;-59
2023/04/19 10:33:39;;;;;;;0.30;0.30;;;;;;;16.71;25.94;102408.59;5104958;28;20300;-59
2023/04/19 10:36:12;;;;;;;0.30;0.30;;;;;;;16.96;25.85;102416.38;5104641;28;20080;-60
2023/04/19 10:38:42;;;;;;;0.30;0.30;;;;;;;17.37;24.72;102412.75;5104790;28;20024;-60
2023/04/19 10:41:11;;;;;;;0.30;0.30;;;;;;;17.19;25.43;102383.09;5104092;28;20050;-60
2023/04/19 10:43:42;;;;;;;0.30;0.30;;;;;;;17.83;24.28;102395.84;5104657;28;20089;-60
2023/04/19 10:46:12;;;;;;;;;;;;;;;18.00;24.33;102381.72;5104983;28;20031;-60
2023/04/19 10:48:40;;;;;;;0.30;0.30;;;;;;;18.01;23.24;102394.84;5086622;28;19907;-59
2023/04/19 10:51:14;;;;;;;0.35;0.35;;;;;;;17.56;24.14;102382.03;5104528;28;20047;-60
2023/04/19 10:53:44;;;;;;;0.30;0.30;;;;;;;17.33;23.63;102389.16;5104319;28;20028;-60
2023/04/19 10:56:09;;;;;;;0.30;0.30;;;;;;;16.98;23.88;102387.56;5104216;28;20023;-60
2023/04/19 10:59:00;;;;;;;0.20;0.20;;;;;;;16.91;24.40;102375.31;5104298;28;20405;-59
2023/04/19 11:01:38;;;;;;;0.63;0.63;;;;;;;16.95;24.36;102374.41;5104354;28;20079;-59
2023/04/19 11:04:08;;;;;;;0.30;0.30;;;;;;;16.92;24.31;102374.44;5086238;28;20020;-60
2023/04/19 11:06:55;;;;;;;0.30;0.30;;;;;;;16.81;24.18;102362.22;5104365;28;20020;-60
2023/04/19 11:09:33;;;;;;;0.30;0.30;;;;;;;16.79;24.07;102382.34;5104102;28;20020;-60
2023/04/19 11:12:00;;;;;;;0.30;0.30;;;;;;;16.87;24.34;102361.31;5104378;28;20018;-62
2023/04/19 11:14:31;;;;;;;0.88;0.88;;;;;;;17.08;24.15;102355.16;5104242;28;20027;-62
2023/04/19 11:16:56;;;;;;;0.30;0.30;;;;;;;17.24;23.81;102365.56;5104136;28;20498;-60
2023/04/19 11:19:21;;;;;;;0.30;0.30;;;;;;;17.27;24.42;102362.94;5104194;28;20095;-60
2023/04/19 11:21:48;;;;;;;0.30;0.30;;;;;;;17.70;24.19;102353.91;5104166;28;20083;-61
2023/04/19 11:24:17;;;;;;;0.30;0.30;;;;;;;17.79;23.76;102346.88;5104070;28;20020;-59
2023/04/19 11:26:47;;;;;;;0.30;0.30;;;;;;;16.79;24.48;102363.13;5104060;28;20016;-59